createdAt,value
2023-01-15T00:00:30.953Z,1.47
2023-01-15T00:04:34.329Z,0.67
2023-01-15T00:08:52.546Z,0.20
2023-01-15T00:12:57.311Z,0.10
2023-01-15T00:17:00.821Z,0.00
2023-01-15T00:21:29.999Z,0.30
2023-01-15T00:25:50.835Z,0.30
2023-01-15T00:29:58.388Z,1.30
2023-01-15T00:34:02.217Z,0.10
2023-01-15T00:44:04.616Z,1.10
2023-01-15T00:48:24.987Z,0.50
2023-01-15T00:52:28.455Z,0.20
2023-01-15T00:56:32.153Z,0.20
2023-01-15T01:00:35.609Z,0.23
2023-01-15T01:04:40.379Z,0.50
2023-01-15T01:08:46.169Z,0.33
2023-01-15T01:12:53.000Z,0.30
2023-01-15T01:16:56.313Z,2.20
2023-01-15T01:21:01.191Z,0.30
2023-01-15T01:25:23.224Z,0.10
2023-01-15T01:29:26.707Z,0.40
2023-01-15T01:33:29.998Z,0.50
2023-01-15T01:37:34.952Z,0.13
2023-01-15T01:41:39.616Z,1.03
2023-01-15T01:45:43.058Z,0.70
2023-01-15T01:49:47.952Z,0.37
2023-01-15T01:53:57.757Z,0.70
2023-01-15T01:58:04.148Z,0.57
2023-01-15T02:02:37.102Z,0.17
2023-01-15T02:06:43.778Z,0.33
2023-01-15T02:10:55.357Z,0.20
2023-01-15T02:15:20.727Z,0.20
2023-01-15T02:19:41.796Z,0.33
2023-01-15T02:24:16.738Z,0.57
2023-01-15T02:28:27.071Z,0.83
2023-01-15T02:32:37.384Z,0.17
2023-01-15T02:41:32.073Z,0.20
2023-01-15T02:46:06.844Z,0.30
2023-01-15T02:50:16.791Z,0.30
2023-01-15T02:54:22.709Z,0.40
2023-01-15T02:58:34.184Z,0.50
2023-01-15T03:07:29.642Z,1.03
2023-01-15T03:11:38.225Z,0.33
2023-01-15T03:16:05.374Z,0.33
2023-01-15T03:20:13.531Z,1.00
2023-01-15T03:24:26.225Z,0.60
2023-01-15T03:28:35.406Z,0.23
2023-01-15T03:32:39.410Z,1.57
2023-01-15T03:36:43.486Z,0.40
2023-01-15T03:40:55.853Z,0.17
2023-01-15T03:45:24.169Z,0.77
2023-01-15T03:49:39.058Z,0.73
2023-01-15T03:53:54.862Z,0.30
2023-01-15T04:03:34.208Z,1.80
2023-01-15T04:07:37.803Z,0.80
2023-01-15T04:11:41.487Z,0.40
2023-01-15T04:15:55.061Z,0.37
2023-01-15T04:19:58.548Z,0.30
2023-01-15T04:24:02.017Z,0.50
2023-01-15T04:28:06.198Z,0.00
2023-01-15T04:32:11.021Z,0.30
2023-01-15T04:36:14.752Z,2.63
2023-01-15T04:40:44.720Z,0.23
2023-01-15T04:44:48.170Z,0.30
2023-01-15T04:48:53.734Z,0.40
2023-01-15T04:52:57.162Z,0.60
2023-01-15T04:57:00.728Z,0.47
2023-01-15T05:01:06.685Z,0.27
2023-01-15T05:05:11.936Z,0.80
2023-01-15T05:09:15.530Z,0.60
2023-01-15T05:13:20.256Z,0.30
2023-01-15T05:17:23.739Z,0.70
2023-01-15T05:21:31.928Z,0.83
2023-01-15T05:25:41.876Z,0.73
2023-01-15T05:29:47.990Z,0.50
2023-01-15T05:34:11.305Z,0.40
2023-01-15T05:38:16.071Z,0.10
2023-01-15T05:42:19.486Z,0.50
2023-01-15T05:46:27.780Z,0.50
2023-01-15T05:50:31.256Z,0.97
2023-01-15T05:54:37.422Z,0.50
2023-01-15T05:58:41.137Z,0.50
2023-01-15T06:02:44.608Z,1.53
2023-01-15T06:06:49.253Z,0.63
2023-01-15T06:11:43.346Z,0.90
2023-01-15T06:15:48.236Z,1.60
2023-01-15T06:19:51.600Z,2.37
2023-01-15T06:24:20.994Z,1.77
2023-01-15T06:28:24.419Z,6.87
2023-01-15T06:32:34.371Z,1.70
2023-01-15T06:36:37.735Z,1.00
2023-01-15T06:40:41.247Z,2.30
2023-01-15T06:45:05.164Z,1.23
2023-01-15T06:49:36.360Z,2.60
2023-01-15T06:53:39.774Z,1.77
2023-01-15T06:57:43.415Z,2.10
2023-01-15T07:02:37.924Z,2.40
2023-01-15T07:06:42.905Z,2.47
2023-01-15T07:10:46.625Z,6.77
2023-01-15T07:14:50.261Z,8.40
2023-01-15T07:19:46.182Z,6.17
2023-01-15T07:23:51.140Z,7.47
2023-01-15T07:27:54.545Z,7.50
2023-01-15T07:32:48.068Z,6.33
2023-01-15T07:36:51.640Z,6.13
2023-01-15T07:41:14.458Z,6.83
2023-01-15T07:50:06.376Z,7.37
2023-01-15T07:54:09.813Z,7.40
2023-01-15T07:58:14.794Z,6.73
2023-01-15T08:02:25.579Z,4.97
2023-01-15T08:06:34.303Z,5.90
2023-01-15T08:10:57.910Z,4.93
2023-01-15T08:15:18.588Z,6.33
2023-01-15T08:19:22.066Z,6.87
2023-01-15T08:29:07.025Z,5.73
2023-01-15T08:33:12.139Z,6.57
2023-01-15T08:37:15.731Z,5.53
2023-01-15T08:41:19.164Z,4.07
2023-01-15T08:45:22.529Z,4.93
2023-01-15T08:49:27.674Z,7.43
2023-01-15T08:53:31.197Z,4.50
2023-01-15T08:57:34.842Z,7.53
2023-01-15T09:01:41.463Z,5.03
2023-01-15T09:06:13.629Z,5.03
2023-01-15T09:10:19.049Z,6.37
2023-01-15T09:14:56.341Z,3.70
2023-01-15T09:18:48.067Z,4.30
2023-01-15T09:22:57.407Z,3.90
2023-01-15T09:27:00.818Z,2.10
2023-01-15T09:31:04.339Z,1.27
2023-01-15T09:35:18.079Z,1.80
2023-01-15T09:39:22.956Z,1.80
2023-01-15T09:43:37.465Z,0.93
2023-01-15T09:48:00.306Z,1.77
2023-01-15T09:52:16.345Z,0.70
2023-01-15T09:56:28.760Z,2.37
2023-01-15T10:00:58.452Z,0.97
2023-01-15T10:05:10.823Z,1.33
2023-01-15T10:09:28.164Z,1.73
2023-01-15T10:13:39.413Z,1.50
2023-01-15T10:17:44.366Z,1.53
2023-01-15T10:22:00.938Z,2.23
2023-01-15T10:26:18.363Z,1.27
2023-01-15T10:30:43.338Z,1.20
2023-01-15T10:35:10.926Z,2.23
2023-01-15T10:39:26.349Z,2.33
2023-01-15T10:43:40.170Z,1.10
2023-01-15T10:47:59.356Z,2.90
2023-01-15T10:52:11.579Z,0.90
2023-01-15T10:56:33.580Z,0.90
2023-01-15T11:00:39.184Z,1.03
2023-01-15T11:04:45.656Z,1.70
2023-01-15T11:09:11.239Z,1.00
2023-01-15T11:14:13.555Z,1.37
2023-01-15T11:23:37.965Z,3.00
2023-01-15T11:34:00.327Z,7.13
2023-01-15T11:38:08.569Z,6.43
2023-01-15T11:42:36.017Z,4.17
2023-01-15T11:51:19.330Z,3.30
2023-01-15T11:55:26.007Z,5.47
2023-01-15T11:59:31.038Z,6.03
2023-01-15T12:03:38.141Z,4.30
2023-01-15T12:08:04.163Z,5.67
2023-01-15T12:12:24.891Z,4.87
2023-01-15T12:16:46.764Z,5.80
2023-01-15T12:21:06.444Z,4.93
2023-01-15T12:25:32.694Z,5.07
2023-01-15T12:29:47.742Z,4.90
2023-01-15T12:34:02.949Z,6.30
2023-01-15T12:38:33.905Z,5.37
2023-01-15T12:42:56.460Z,5.30
2023-01-15T12:46:59.899Z,5.37
2023-01-15T12:51:06.786Z,5.23
2023-01-15T12:55:39.008Z,7.20
2023-01-15T13:04:40.919Z,6.20
2023-01-15T13:09:05.776Z,5.93
2023-01-15T13:13:19.784Z,5.20
2023-01-15T13:17:34.060Z,1.73
2023-01-15T13:21:38.637Z,0.80
2023-01-15T13:26:01.013Z,1.47
2023-01-15T13:30:24.888Z,0.70
2023-01-15T13:34:35.045Z,1.17
2023-01-15T13:38:42.637Z,1.30
2023-01-15T13:42:50.716Z,0.97
2023-01-15T13:48:03.404Z,2.17
2023-01-15T13:52:08.945Z,0.73
2023-01-15T13:56:15.405Z,1.83
2023-01-15T14:00:40.446Z,0.40
2023-01-15T14:04:44.015Z,0.47
2023-01-15T14:09:14.507Z,0.30
2023-01-15T14:13:52.042Z,0.77
2023-01-15T14:18:35.858Z,1.73
2023-01-15T14:23:05.210Z,1.63
2023-01-15T14:27:33.177Z,0.77
2023-01-15T14:36:29.436Z,0.60
2023-01-15T14:40:36.728Z,0.30
2023-01-15T14:45:29.977Z,0.40
2023-01-15T14:50:24.998Z,0.33
2023-01-15T14:54:30.395Z,0.50
2023-01-15T14:58:50.625Z,0.30
2023-01-15T15:02:54.202Z,0.20
2023-01-15T15:07:02.507Z,0.20
2023-01-15T15:11:28.013Z,0.40
2023-01-15T15:16:32.407Z,1.13
2023-01-15T15:20:49.219Z,0.10
2023-01-15T15:24:56.069Z,0.67
2023-01-15T15:29:01.007Z,0.73
2023-01-15T15:33:37.815Z,0.10
2023-01-15T15:37:45.771Z,0.10
2023-01-15T15:42:11.022Z,0.03
2023-01-15T15:51:32.316Z,0.30
2023-01-15T15:55:50.765Z,0.47
2023-01-15T15:59:54.956Z,0.30
2023-01-15T16:03:58.552Z,0.10
2023-01-15T16:08:18.992Z,0.53
2023-01-15T16:12:24.987Z,0.50
2023-01-15T16:16:29.593Z,0.77
2023-01-15T16:20:34.834Z,0.40
2023-01-15T16:24:38.243Z,0.30
2023-01-15T16:28:50.446Z,0.00
2023-01-15T16:32:57.629Z,0.27
2023-01-15T16:37:02.721Z,0.17
2023-01-15T16:41:20.263Z,0.10
2023-01-15T16:45:28.655Z,0.10
2023-01-15T16:49:33.391Z,0.33
2023-01-15T16:53:42.083Z,0.57
2023-01-15T16:57:45.623Z,0.10
2023-01-15T17:01:52.789Z,0.70
2023-01-15T17:06:05.707Z,0.23
2023-01-15T17:10:24.801Z,0.20
2023-01-15T17:14:29.936Z,0.00
2023-01-15T17:18:35.091Z,0.10
2023-01-15T17:23:03.110Z,0.10
2023-01-15T17:27:26.187Z,0.20
2023-01-15T17:31:31.812Z,0.10
2023-01-15T17:35:41.360Z,0.97
2023-01-15T17:39:44.777Z,0.00
2023-01-15T17:43:48.628Z,0.17
2023-01-15T17:48:20.490Z,0.07
2023-01-15T17:52:25.512Z,0.10
2023-01-15T17:56:49.773Z,0.17
2023-01-15T18:05:52.799Z,0.20
2023-01-15T18:09:58.157Z,0.30
2023-01-15T18:14:01.573Z,0.20
2023-01-15T18:18:23.499Z,0.20
2023-01-15T18:22:27.076Z,0.00
2023-01-15T18:26:31.910Z,0.10
2023-01-15T18:31:31.231Z,0.07
2023-01-15T18:35:35.016Z,0.20
2023-01-15T18:39:40.814Z,0.00
2023-01-15T18:48:42.563Z,0.00
2023-01-15T18:52:52.047Z,0.17
2023-01-15T18:56:55.438Z,0.10
2023-01-15T19:01:07.462Z,0.10
2023-01-15T19:05:14.701Z,0.10
2023-01-15T19:15:44.712Z,0.00
2023-01-15T19:19:49.660Z,0.17
2023-01-15T19:23:53.587Z,0.17
2023-01-15T19:27:58.187Z,0.10
2023-01-15T19:32:04.309Z,0.63
2023-01-15T19:36:13.139Z,1.07
2023-01-15T19:40:20.945Z,0.23
2023-01-15T19:44:41.835Z,0.10
2023-01-15T19:49:08.875Z,0.30
2023-01-15T19:53:14.468Z,0.70
2023-01-15T19:57:21.699Z,1.17
2023-01-15T20:01:25.485Z,0.10
2023-01-15T20:05:44.101Z,0.60
2023-01-15T20:09:49.019Z,0.57
2023-01-15T20:13:53.912Z,0.30
2023-01-15T20:18:23.620Z,0.17
2023-01-15T20:22:27.264Z,0.30
2023-01-15T20:26:35.192Z,0.20
2023-01-15T20:30:38.889Z,0.33
2023-01-15T20:34:42.352Z,1.60
2023-01-15T20:38:46.104Z,0.10
2023-01-15T20:43:09.672Z,0.93
2023-01-15T20:52:26.987Z,0.50
2023-01-15T20:56:30.505Z,0.83
2023-01-15T21:00:36.226Z,0.70
2023-01-15T21:04:40.091Z,0.30
2023-01-15T21:09:09.271Z,1.50
2023-01-15T21:13:27.334Z,0.20
2023-01-15T21:17:32.359Z,0.53
2023-01-15T21:21:35.738Z,0.17
2023-01-15T21:26:05.323Z,0.33
2023-01-15T21:30:35.175Z,0.50
2023-01-15T21:34:41.248Z,0.23
2023-01-15T21:38:44.684Z,0.50
2023-01-15T21:48:26.334Z,0.53
2023-01-15T21:52:31.171Z,0.20
2023-01-15T21:56:36.698Z,2.10
2023-01-15T22:00:40.098Z,3.10
2023-01-15T22:04:44.742Z,0.20
2023-01-15T22:08:49.656Z,0.23
2023-01-15T22:12:57.358Z,0.50
2023-01-15T22:17:02.851Z,0.30
2023-01-15T22:26:44.293Z,1.03
2023-01-15T22:31:18.073Z,0.90
2023-01-15T22:35:22.799Z,0.37
2023-01-15T22:39:27.504Z,0.10
2023-01-15T22:43:32.802Z,0.30
2023-01-15T22:47:36.519Z,0.40
2023-01-15T22:51:39.928Z,0.30
2023-01-15T22:55:46.623Z,0.83
2023-01-15T22:59:51.699Z,0.90
2023-01-15T23:03:56.512Z,0.40
2023-01-15T23:07:59.962Z,0.30
2023-01-15T23:12:08.018Z,0.73
2023-01-15T23:16:13.025Z,0.40
2023-01-15T23:20:16.531Z,0.20
2023-01-15T23:24:19.893Z,0.70
2023-01-15T23:28:25.408Z,0.63
2023-01-15T23:32:30.375Z,0.47
2023-01-15T23:36:33.845Z,0.20
2023-01-15T23:40:40.842Z,0.90
2023-01-15T23:45:06.652Z,0.30
2023-01-15T23:49:13.208Z,0.93
2023-01-15T23:53:42.125Z,0.60
2023-01-15T23:57:45.527Z,0.40
